الصفحة الرئيسية
METAR-TAF:

METAR-TAF

مطار :

Villavicencio, كولومبيا

دائرة عرض: 04-10N, خط طول: 073-37W, ارتفاع: 423 متر

مراقبة الطقس الحالي

تاريخ ووقت الإصدار 59 دقيقة قبل الساعة 18:00UTC
ريح 6 عقدة من الشمال/الشمال الشرقي
درجة الحرارة 33°درجة مئوية
الرطوبة 44%
ضغط 1012 hPa
الرؤية: 8000 متر
غيوم قليلة على ارتفاع 2000 قدم
غيوم متفرقة على ارتفاع 9000 قدم

METAR: SKVV 041800Z 02006KT 8000 FEW020 SCT090 33/19 Q1012

زمن: 13:59 (18:59 UTC)


TAF: مفقودة

أرصاد الطقس والتوقعات من أكثر من 4000 مطار (تقارير الطقس للمطار METAR والتنبؤ بالطقس بالمطارTAF).

المحطات المتاحة هي النقط الصفراء والحمراء على الخريطة.

حرك المؤشر فوق النقطة لمعرفة اسم المحطة.

ثم انقر لمعرفة أرصاد وتوقعات الطقس.

لتغيير الخارطة: اضغط على الأزرار الخضراء مع رمز الصليب الأسود للتكبير. على الزر الأخضر مع شرطة للتصغير، أو على الأسهم الخضراء للخرائط المجاورة.


METAR-TAF: